createdAt,value
2017-06-22T00:02:05.531Z,2.20
2017-06-22T00:04:33.025Z,5.13
2017-06-22T00:07:00.514Z,3.50
2017-06-22T00:09:28.318Z,3.57
2017-06-22T00:11:55.798Z,3.80
2017-06-22T00:14:23.278Z,3.73
2017-06-22T00:16:50.770Z,3.43
2017-06-22T00:19:18.257Z,3.40
2017-06-22T00:21:46.015Z,4.30
2017-06-22T00:24:13.495Z,2.80
2017-06-22T00:26:40.970Z,4.87
2017-06-22T00:29:08.482Z,2.40
2017-06-22T00:31:35.982Z,5.93
2017-06-22T00:34:03.740Z,6.30
2017-06-22T00:36:31.230Z,3.17
2017-06-22T00:38:58.732Z,4.60
2017-06-22T00:41:26.233Z,3.30
2017-06-22T00:43:53.721Z,5.33
2017-06-22T00:46:21.553Z,3.77
2017-06-22T00:48:49.057Z,2.37
2017-06-22T00:51:16.552Z,4.13
2017-06-22T00:53:44.059Z,5.90
2017-06-22T00:56:11.545Z,2.20
2017-06-22T00:58:39.332Z,3.37
2017-06-22T01:01:06.821Z,3.10
2017-06-22T01:03:34.324Z,4.00
2017-06-22T01:06:01.829Z,4.33
2017-06-22T01:08:29.330Z,2.70
2017-06-22T01:10:57.115Z,2.90
2017-06-22T01:13:25.375Z,3.47
2017-06-22T01:15:52.861Z,2.80
2017-06-22T01:18:21.119Z,2.10
2017-06-22T01:20:48.609Z,3.67
2017-06-22T01:23:16.489Z,2.57
2017-06-22T01:25:43.992Z,2.37
2017-06-22T01:28:11.476Z,4.97
2017-06-22T01:30:38.963Z,5.17
2017-06-22T01:33:06.457Z,4.90
2017-06-22T01:35:34.226Z,5.87
2017-06-22T01:38:01.718Z,3.53
2017-06-22T01:40:29.208Z,3.53
2017-06-22T01:42:56.698Z,4.77
2017-06-22T01:45:24.194Z,2.20
2017-06-22T01:47:51.980Z,3.90
2017-06-22T01:50:19.473Z,2.27
2017-06-22T01:52:46.962Z,3.90
2017-06-22T01:55:14.473Z,3.83
2017-06-22T01:57:41.979Z,3.07
2017-06-22T02:00:09.777Z,5.70
2017-06-22T02:02:37.256Z,3.77
2017-06-22T02:05:04.754Z,4.90
2017-06-22T02:07:32.249Z,4.10
2017-06-22T02:09:59.721Z,7.13
2017-06-22T02:12:27.493Z,4.17
2017-06-22T02:14:54.965Z,2.37
2017-06-22T02:17:22.456Z,3.87
2017-06-22T02:19:49.975Z,4.17
2017-06-22T02:22:17.471Z,4.50
2017-06-22T02:24:45.252Z,3.50
2017-06-22T02:27:12.730Z,5.17
2017-06-22T02:29:40.973Z,4.80
2017-06-22T02:32:08.467Z,3.83
2017-06-22T02:34:35.956Z,3.77
2017-06-22T02:37:03.756Z,3.97
2017-06-22T02:39:31.267Z,3.10
2017-06-22T02:41:58.766Z,4.63
2017-06-22T02:44:26.270Z,3.93
2017-06-22T02:46:53.778Z,3.40
2017-06-22T02:49:21.564Z,5.33
2017-06-22T02:51:49.054Z,2.97
2017-06-22T02:54:17.302Z,5.55
2017-06-22T02:56:44.805Z,3.80
2017-06-22T02:59:12.318Z,8.17
2017-06-22T03:01:40.109Z,5.17
2017-06-22T03:04:07.597Z,5.10
2017-06-22T03:06:35.083Z,5.40
2017-06-22T03:09:02.576Z,2.90
2017-06-22T03:11:30.097Z,4.77
2017-06-22T03:13:57.883Z,3.70
2017-06-22T03:16:25.626Z,7.57
2017-06-22T03:18:53.187Z,2.77
2017-06-22T03:21:20.708Z,5.07
2017-06-22T03:23:48.983Z,7.57
2017-06-22T03:26:16.731Z,7.47
2017-06-22T03:28:44.215Z,3.30
2017-06-22T03:31:11.716Z,4.03
2017-06-22T03:33:39.215Z,4.33
2017-06-22T03:36:07.483Z,3.57
2017-06-22T03:38:35.278Z,4.57
2017-06-22T03:41:02.773Z,4.07
2017-06-22T03:43:30.265Z,3.17
2017-06-22T03:45:57.772Z,4.20
2017-06-22T03:48:25.268Z,2.70
2017-06-22T03:50:53.078Z,3.33
2017-06-22T03:53:20.570Z,3.40
2017-06-22T03:55:48.064Z,3.63
2017-06-22T03:58:15.555Z,5.37
2017-06-22T04:00:43.048Z,3.27
2017-06-22T04:03:10.550Z,4.20
2017-06-22T04:05:38.068Z,6.80
2017-06-22T04:08:05.568Z,6.97
2017-06-22T04:10:33.079Z,3.30
2017-06-22T04:13:00.862Z,8.97
2017-06-22T04:15:28.362Z,3.00
2017-06-22T04:17:55.840Z,4.73
2017-06-22T04:20:23.338Z,5.70
2017-06-22T04:22:50.836Z,4.80
2017-06-22T04:25:19.423Z,4.53
2017-06-22T04:27:46.928Z,2.70
2017-06-22T04:30:14.425Z,8.20
2017-06-22T04:32:41.931Z,4.27
2017-06-22T04:35:09.420Z,4.13
2017-06-22T04:37:37.206Z,5.20
2017-06-22T04:40:04.701Z,4.57
2017-06-22T04:42:32.178Z,4.10
2017-06-22T04:44:59.687Z,4.30
2017-06-22T04:47:27.168Z,5.27
2017-06-22T04:49:54.954Z,5.27
2017-06-22T04:52:22.443Z,4.40
2017-06-22T04:54:49.931Z,5.20
2017-06-22T04:57:17.449Z,3.20
2017-06-22T04:59:44.952Z,3.07
2017-06-22T05:02:12.743Z,5.13
2017-06-22T05:04:40.240Z,5.17
2017-06-22T05:07:07.732Z,4.53
2017-06-22T05:09:36.007Z,5.60
2017-06-22T05:12:04.259Z,5.03
2017-06-22T05:14:32.034Z,4.00
2017-06-22T05:16:59.512Z,6.10
2017-06-22T05:19:27.007Z,5.93
2017-06-22T05:21:54.520Z,3.90
2017-06-22T05:24:21.989Z,5.17
2017-06-22T05:26:49.763Z,5.30
2017-06-22T05:29:17.260Z,3.53
2017-06-22T05:31:44.758Z,7.70
2017-06-22T05:34:12.251Z,6.93
2017-06-22T05:36:39.724Z,3.77
2017-06-22T05:39:07.576Z,4.77
2017-06-22T05:41:35.073Z,3.70
2017-06-22T05:44:02.567Z,3.63
2017-06-22T05:46:30.854Z,3.70
2017-06-22T05:48:58.344Z,4.20
2017-06-22T05:51:26.182Z,5.17
2017-06-22T05:53:53.685Z,4.47
2017-06-22T05:56:21.175Z,5.23
2017-06-22T05:58:48.678Z,4.30
2017-06-22T06:01:16.155Z,5.47
2017-06-22T06:03:43.951Z,5.23
2017-06-22T06:06:11.457Z,6.50
2017-06-22T06:08:38.952Z,5.03
2017-06-22T06:11:07.596Z,6.03
2017-06-22T06:13:35.094Z,4.70
2017-06-22T06:16:02.884Z,3.37
2017-06-22T06:18:30.376Z,3.40
2017-06-22T06:20:57.860Z,3.17
2017-06-22T06:23:25.387Z,8.73
2017-06-22T06:25:52.880Z,6.33
2017-06-22T06:28:20.638Z,4.07
2017-06-22T06:30:48.143Z,5.83
2017-06-22T06:33:15.625Z,3.77
2017-06-22T06:35:43.907Z,2.97
2017-06-22T06:38:11.416Z,3.10
2017-06-22T06:40:39.180Z,3.43
2017-06-22T06:43:06.653Z,4.27
2017-06-22T06:45:34.140Z,6.27
2017-06-22T06:48:01.646Z,6.07
2017-06-22T06:50:29.136Z,2.33
2017-06-22T06:52:56.929Z,4.23
2017-06-22T06:55:25.556Z,2.37
2017-06-22T06:57:54.397Z,2.27
2017-06-22T07:00:21.913Z,2.50
2017-06-22T07:02:49.394Z,4.27
2017-06-22T07:05:17.197Z,2.50
2017-06-22T07:07:46.071Z,3.73
2017-06-22T07:10:13.582Z,5.40
2017-06-22T07:12:41.070Z,3.33
2017-06-22T07:15:08.568Z,2.42
2017-06-22T07:17:37.121Z,3.63
2017-06-22T07:20:04.626Z,2.90
2017-06-22T07:22:32.107Z,2.87
2017-06-22T07:24:59.606Z,3.40
2017-06-22T07:27:27.092Z,2.93
2017-06-22T07:29:54.609Z,3.40
2017-06-22T07:32:22.102Z,6.10
2017-06-22T07:34:50.640Z,2.13
2017-06-22T07:37:18.136Z,5.80
2017-06-22T07:39:46.385Z,2.20
2017-06-22T07:42:13.900Z,4.17
2017-06-22T07:44:41.391Z,2.30
2017-06-22T07:47:09.226Z,3.73
2017-06-22T07:49:36.711Z,4.00
2017-06-22T07:52:04.608Z,1.93
2017-06-22T07:54:32.121Z,2.37
2017-06-22T07:56:59.633Z,4.30
2017-06-22T07:59:28.553Z,3.17
2017-06-22T08:01:56.057Z,7.00
2017-06-22T08:04:23.576Z,2.00
2017-06-22T08:06:51.082Z,4.10
2017-06-22T08:09:18.577Z,3.57
2017-06-22T08:11:47.190Z,4.23
2017-06-22T08:14:14.711Z,2.80
2017-06-22T08:16:42.974Z,2.20
2017-06-22T08:19:10.479Z,3.93
2017-06-22T08:21:37.974Z,3.00
2017-06-22T08:24:05.771Z,4.90
2017-06-22T08:26:33.262Z,2.20
2017-06-22T08:29:00.751Z,4.43
2017-06-22T08:31:28.234Z,5.80
2017-06-22T08:33:55.733Z,2.43
2017-06-22T08:36:23.531Z,2.80
2017-06-22T08:38:51.041Z,3.43
2017-06-22T08:41:18.543Z,3.40
2017-06-22T08:43:46.314Z,6.10
2017-06-22T08:46:13.818Z,4.77
2017-06-22T08:48:41.320Z,6.67
2017-06-22T08:51:09.095Z,5.60
2017-06-22T08:53:36.593Z,3.60
2017-06-22T08:56:04.088Z,2.17
2017-06-22T08:58:31.874Z,5.43
2017-06-22T09:01:00.507Z,2.70
2017-06-22T09:03:28.013Z,3.97
2017-06-22T09:05:55.872Z,4.20
2017-06-22T09:08:23.360Z,3.57
2017-06-22T09:10:50.839Z,5.73
2017-06-22T09:13:18.623Z,4.13
2017-06-22T09:15:46.885Z,4.37
2017-06-22T09:18:14.378Z,3.50
2017-06-22T09:20:42.166Z,3.50
2017-06-22T09:23:09.672Z,2.87
2017-06-22T09:25:37.166Z,3.42
2017-06-22T09:28:04.663Z,3.08
2017-06-22T09:30:32.176Z,5.25
2017-06-22T09:33:00.752Z,3.05
2017-06-22T09:35:29.013Z,3.58
2017-06-22T09:37:56.511Z,4.78
2017-06-22T09:40:24.020Z,4.60
2017-06-22T09:42:51.515Z,3.93
2017-06-22T09:45:19.320Z,2.90
2017-06-22T09:47:46.854Z,3.13
2017-06-22T09:50:14.351Z,6.35
2017-06-22T09:52:41.849Z,6.25
2017-06-22T09:55:10.110Z,3.58
2017-06-22T09:57:39.038Z,3.50
2017-06-22T10:00:06.527Z,3.70
2017-06-22T10:02:34.035Z,4.85
2017-06-22T10:05:01.549Z,4.50
2017-06-22T10:07:30.416Z,3.47
2017-06-22T10:09:58.182Z,3.40
2017-06-22T10:12:27.008Z,3.80
2017-06-22T10:14:54.904Z,3.67
2017-06-22T10:17:22.413Z,4.30
2017-06-22T10:19:49.917Z,6.18
2017-06-22T10:22:17.692Z,4.85
2017-06-22T10:24:45.961Z,3.58
2017-06-22T10:27:13.865Z,4.35
2017-06-22T10:29:41.376Z,3.60
2017-06-22T10:32:09.631Z,3.72
2017-06-22T10:34:37.429Z,3.92
2017-06-22T10:37:06.270Z,6.00
2017-06-22T10:39:33.760Z,3.42
2017-06-22T10:42:01.245Z,6.57
2017-06-22T10:44:28.737Z,5.45
2017-06-22T10:46:56.546Z,4.25
2017-06-22T10:49:24.039Z,4.07
2017-06-22T10:51:51.539Z,4.05
2017-06-22T10:54:19.030Z,4.35
2017-06-22T10:56:46.530Z,3.83
2017-06-22T10:59:14.338Z,3.72
2017-06-22T11:01:41.832Z,4.75
2017-06-22T11:04:10.079Z,4.80
2017-06-22T11:06:37.595Z,4.60
2017-06-22T11:09:05.069Z,5.70
2017-06-22T11:11:32.859Z,6.55
2017-06-22T11:14:00.369Z,4.87
2017-06-22T11:16:27.852Z,4.47
2017-06-22T11:18:55.363Z,3.87
2017-06-22T11:21:22.859Z,3.90
2017-06-22T11:23:50.620Z,4.18
2017-06-22T11:26:18.126Z,7.18
2017-06-22T11:28:45.620Z,4.45
2017-06-22T11:31:13.164Z,3.70
2017-06-22T11:33:40.672Z,4.33
2017-06-22T11:36:08.510Z,5.00
2017-06-22T11:38:36.789Z,3.95
2017-06-22T11:41:04.266Z,6.13
2017-06-22T11:43:31.775Z,9.43
2017-06-22T11:45:59.266Z,4.70
2017-06-22T11:48:27.860Z,5.00
2017-06-22T11:50:55.410Z,5.10
2017-06-22T11:53:22.906Z,4.53
2017-06-22T11:55:50.423Z,5.57
2017-06-22T11:58:17.915Z,5.30
2017-06-22T12:00:45.765Z,8.27
2017-06-22T12:03:13.269Z,5.30
2017-06-22T12:05:40.774Z,7.17
2017-06-22T12:08:09.058Z,5.90
2017-06-22T12:10:36.544Z,8.83
2017-06-22T12:13:04.321Z,7.20
2017-06-22T12:15:31.808Z,6.60
2017-06-22T12:17:59.313Z,6.00
2017-06-22T12:20:26.800Z,5.07
2017-06-22T12:22:54.293Z,5.03
2017-06-22T12:25:22.094Z,5.43
2017-06-22T12:27:49.576Z,6.27
2017-06-22T12:30:17.072Z,6.00
2017-06-22T12:32:44.591Z,9.87
2017-06-22T12:35:12.097Z,11.37
2017-06-22T12:37:39.884Z,7.60
2017-06-22T12:40:07.382Z,5.50
2017-06-22T12:42:36.211Z,11.40
2017-06-22T12:45:04.865Z,11.73
2017-06-22T12:47:32.354Z,11.87
2017-06-22T12:50:00.130Z,9.57
2017-06-22T12:52:28.399Z,9.27
2017-06-22T12:54:55.906Z,8.63
2017-06-22T12:57:23.447Z,8.53
2017-06-22T12:59:50.942Z,10.17
2017-06-22T13:02:18.753Z,7.43
2017-06-22T13:04:46.272Z,8.67
2017-06-22T13:07:13.765Z,8.13
2017-06-22T13:09:42.041Z,7.47
2017-06-22T13:12:09.541Z,9.50
2017-06-22T13:14:37.342Z,8.60
2017-06-22T13:17:04.844Z,7.50
2017-06-22T13:19:32.374Z,9.60
2017-06-22T13:21:59.877Z,7.80
2017-06-22T13:24:27.407Z,8.63
2017-06-22T13:26:55.186Z,11.37
2017-06-22T13:29:22.670Z,8.63
2017-06-22T13:31:51.913Z,10.67
2017-06-22T13:34:19.420Z,11.73
2017-06-22T13:36:46.946Z,10.50
2017-06-22T13:39:15.893Z,12.90
2017-06-22T13:41:43.388Z,12.00
2017-06-22T13:44:10.892Z,10.77
2017-06-22T13:46:38.403Z,10.73
2017-06-22T13:49:05.897Z,9.30
2017-06-22T13:51:33.645Z,10.90
2017-06-22T13:54:01.908Z,11.20
2017-06-22T13:56:29.406Z,9.30
2017-06-22T13:58:56.910Z,8.90
2017-06-22T14:01:24.401Z,9.90
2017-06-22T14:03:52.982Z,11.40
2017-06-22T14:06:21.380Z,11.80
2017-06-22T14:08:49.635Z,9.20
2017-06-22T14:11:17.134Z,10.17
2017-06-22T14:13:44.623Z,9.80
2017-06-22T14:16:12.444Z,10.57
2017-06-22T14:18:39.939Z,9.23
2017-06-22T14:21:07.440Z,14.27
2017-06-22T14:23:35.725Z,10.50
2017-06-22T14:26:03.988Z,10.30
2017-06-22T14:28:31.883Z,9.80
2017-06-22T14:30:59.376Z,9.47
2017-06-22T14:33:26.878Z,10.50
2017-06-22T14:35:54.402Z,10.53
2017-06-22T14:38:21.900Z,10.17
2017-06-22T14:40:50.484Z,8.60
2017-06-22T14:43:18.765Z,9.63
2017-06-22T14:45:47.040Z,8.17
2017-06-22T14:48:14.571Z,9.00
2017-06-22T14:50:42.061Z,8.50
2017-06-22T14:53:09.871Z,8.37
2017-06-22T14:55:37.364Z,9.50
2017-06-22T14:58:04.863Z,8.77
2017-06-22T15:00:32.389Z,8.60
2017-06-22T15:02:59.901Z,9.63
2017-06-22T15:05:27.692Z,9.60
2017-06-22T15:07:55.188Z,9.53
2017-06-22T15:10:22.696Z,9.13
2017-06-22T15:12:50.561Z,8.60
2017-06-22T15:15:18.089Z,8.87
2017-06-22T15:17:45.589Z,8.93
2017-06-22T15:20:13.098Z,9.00
2017-06-22T15:22:40.589Z,8.93
2017-06-22T15:25:08.433Z,10.83
2017-06-22T15:27:35.940Z,8.70
2017-06-22T15:30:03.438Z,8.50
2017-06-22T15:32:31.732Z,9.87
2017-06-22T15:34:59.220Z,9.60
2017-06-22T15:37:27.081Z,9.63
2017-06-22T15:39:54.590Z,9.60
2017-06-22T15:42:22.100Z,10.30
2017-06-22T15:44:49.609Z,9.97
2017-06-22T15:47:17.103Z,10.20
2017-06-22T15:49:44.985Z,10.40
2017-06-22T15:52:12.485Z,10.67
2017-06-22T15:54:39.977Z,11.03
2017-06-22T15:57:08.251Z,10.53
2017-06-22T15:59:35.751Z,10.20
2017-06-22T16:02:03.572Z,9.90
2017-06-22T16:04:32.202Z,11.10
2017-06-22T16:06:59.715Z,10.20
2017-06-22T16:09:27.224Z,10.10
2017-06-22T16:11:54.744Z,10.27
2017-06-22T16:14:22.539Z,10.20
2017-06-22T16:16:50.019Z,10.80
2017-06-22T16:19:17.493Z,9.93
2017-06-22T16:21:45.002Z,10.00
2017-06-22T16:24:12.492Z,11.57
2017-06-22T16:26:40.337Z,10.60
2017-06-22T16:29:07.832Z,11.13
2017-06-22T16:31:35.341Z,10.50
2017-06-22T16:34:02.852Z,12.10
2017-06-22T16:36:30.358Z,10.00
2017-06-22T16:38:58.165Z,10.77
2017-06-22T16:41:25.666Z,10.00
2017-06-22T16:43:53.947Z,10.90
2017-06-22T16:46:22.225Z,10.30
2017-06-22T16:48:50.492Z,11.50
2017-06-22T16:51:18.337Z,11.30
2017-06-22T16:53:45.869Z,12.03
2017-06-22T16:56:13.345Z,11.47
2017-06-22T16:58:40.904Z,11.43
2017-06-22T17:01:08.394Z,10.63
2017-06-22T17:03:36.219Z,12.17
2017-06-22T17:06:03.712Z,11.03
2017-06-22T17:08:31.209Z,11.27
2017-06-22T17:10:58.739Z,11.23
2017-06-22T17:13:26.254Z,10.43
2017-06-22T17:15:54.061Z,11.90
2017-06-22T17:18:21.562Z,11.23
2017-06-22T17:20:49.089Z,11.17
2017-06-22T17:23:17.373Z,10.23
2017-06-22T17:25:45.673Z,10.60
2017-06-22T17:28:13.454Z,11.23
2017-06-22T17:30:40.956Z,11.50
2017-06-22T17:33:08.456Z,11.70
2017-06-22T17:35:35.955Z,11.43
2017-06-22T17:38:03.466Z,11.13
2017-06-22T17:40:31.322Z,14.90
2017-06-22T17:42:58.823Z,10.93
2017-06-22T17:45:26.334Z,13.40
2017-06-22T17:47:54.620Z,10.10
2017-06-22T17:50:22.147Z,9.37
2017-06-22T17:52:49.914Z,10.00
2017-06-22T17:55:17.421Z,12.37
2017-06-22T17:57:44.937Z,9.87
2017-06-22T18:00:12.427Z,10.53
2017-06-22T18:02:39.934Z,10.87
2017-06-22T18:05:07.722Z,9.30
2017-06-22T18:07:35.237Z,11.13
2017-06-22T18:10:02.770Z,12.83
2017-06-22T18:12:30.278Z,11.53
2017-06-22T18:14:57.801Z,12.57
2017-06-22T18:17:25.593Z,10.30
2017-06-22T18:19:53.130Z,10.30
2017-06-22T18:22:20.641Z,12.70
2017-06-22T18:24:48.167Z,14.57
2017-06-22T18:27:15.674Z,10.40
2017-06-22T18:29:43.459Z,9.40
2017-06-22T18:32:11.726Z,11.30
2017-06-22T18:34:39.249Z,11.73
2017-06-22T18:37:06.786Z,11.67
2017-06-22T18:39:34.279Z,12.67
2017-06-22T18:42:02.076Z,12.30
2017-06-22T18:44:30.336Z,11.90
2017-06-22T18:46:57.818Z,11.47
2017-06-22T18:49:25.348Z,13.20
2017-06-22T18:51:52.869Z,10.60
2017-06-22T18:54:20.714Z,11.73
2017-06-22T18:56:48.234Z,12.47
2017-06-22T18:59:15.731Z,14.20
2017-06-22T19:01:43.253Z,11.80
2017-06-22T19:04:10.779Z,11.13
2017-06-22T19:06:38.551Z,11.83
2017-06-22T19:09:06.069Z,11.03
2017-06-22T19:11:33.578Z,12.57
2017-06-22T19:14:01.154Z,14.03
2017-06-22T19:16:28.653Z,13.33
2017-06-22T19:18:56.454Z,11.83
2017-06-22T19:21:23.942Z,11.93
2017-06-22T19:23:51.460Z,10.93
2017-06-22T19:26:18.999Z,12.47
2017-06-22T19:28:46.505Z,12.43
2017-06-22T19:31:14.298Z,11.13
2017-06-22T19:33:41.833Z,11.73
2017-06-22T19:36:09.349Z,11.77
2017-06-22T19:38:36.871Z,11.47
2017-06-22T19:41:04.360Z,13.07
2017-06-22T19:43:32.144Z,10.07
2017-06-22T19:45:59.643Z,11.87
2017-06-22T19:48:27.181Z,12.40
2017-06-22T19:50:54.707Z,10.30
2017-06-22T19:53:22.231Z,10.07
2017-06-22T19:55:50.025Z,9.90
2017-06-22T19:58:17.567Z,11.63
2017-06-22T20:00:45.849Z,9.23
2017-06-22T20:03:13.367Z,10.10
2017-06-22T20:05:40.880Z,10.27
2017-06-22T20:08:08.642Z,11.43
2017-06-22T20:10:36.152Z,13.53
2017-06-22T20:13:03.659Z,11.67
2017-06-22T20:15:31.181Z,12.23
2017-06-22T20:17:58.693Z,12.40
2017-06-22T20:20:26.505Z,11.17
2017-06-22T20:22:54.028Z,14.03
2017-06-22T20:25:21.533Z,13.30
2017-06-22T20:27:49.337Z,12.37
2017-06-22T20:30:16.831Z,13.40
2017-06-22T20:32:44.384Z,13.57
2017-06-22T20:35:12.152Z,13.03
2017-06-22T20:37:39.669Z,13.47
2017-06-22T20:40:07.219Z,13.37
2017-06-22T20:42:35.502Z,13.07
2017-06-22T20:45:03.019Z,14.60
2017-06-22T20:47:30.837Z,12.50
2017-06-22T20:49:58.354Z,12.87
2017-06-22T20:52:25.876Z,13.63
2017-06-22T20:54:53.402Z,13.67
2017-06-22T20:57:20.921Z,14.80
2017-06-22T20:59:48.724Z,12.07
2017-06-22T21:02:16.231Z,13.23
2017-06-22T21:04:43.732Z,13.63
2017-06-22T21:07:11.246Z,12.00
2017-06-22T21:09:38.775Z,11.77
2017-06-22T21:12:06.583Z,12.37
2017-06-22T21:14:34.070Z,12.57
2017-06-22T21:17:01.592Z,11.43
2017-06-22T21:19:29.140Z,12.40
2017-06-22T21:21:56.656Z,11.53
2017-06-22T21:24:24.458Z,10.77
2017-06-22T21:26:51.963Z,12.43
2017-06-22T21:29:19.452Z,8.70
2017-06-22T21:31:46.971Z,9.27
2017-06-22T21:34:14.483Z,8.60
2017-06-22T21:36:42.288Z,9.33
2017-06-22T21:39:09.785Z,9.03
2017-06-22T21:41:37.286Z,11.37
2017-06-22T21:44:04.790Z,8.57
2017-06-22T21:46:32.312Z,12.23
2017-06-22T21:49:00.089Z,10.03
2017-06-22T21:51:27.586Z,8.93
2017-06-22T21:53:55.092Z,8.30
2017-06-22T21:56:22.617Z,10.67
2017-06-22T21:58:50.101Z,8.33
2017-06-22T22:01:17.897Z,7.53
2017-06-22T22:03:45.410Z,10.13
2017-06-22T22:06:13.680Z,8.57
2017-06-22T22:08:41.195Z,9.87
2017-06-22T22:11:08.700Z,10.70
2017-06-22T22:13:36.522Z,11.17
2017-06-22T22:16:04.032Z,11.23
2017-06-22T22:18:32.331Z,9.90
2017-06-22T22:20:59.843Z,11.77
2017-06-22T22:23:27.338Z,9.50
2017-06-22T22:25:55.152Z,12.33
2017-06-22T22:28:22.650Z,10.47
2017-06-22T22:30:50.141Z,12.83
2017-06-22T22:33:17.656Z,10.20
2017-06-22T22:35:45.157Z,10.90
2017-06-22T22:38:12.928Z,8.87
2017-06-22T22:40:40.437Z,10.10
2017-06-22T22:43:07.928Z,11.37
2017-06-22T22:45:35.443Z,12.37
2017-06-22T22:48:02.945Z,9.60
2017-06-22T22:50:30.731Z,10.93
2017-06-22T22:52:58.222Z,13.07
2017-06-22T22:55:25.723Z,10.67
2017-06-22T22:57:54.026Z,10.60
2017-06-22T23:00:21.515Z,12.70
2017-06-22T23:02:49.289Z,12.47
2017-06-22T23:05:16.789Z,13.17
2017-06-22T23:07:44.305Z,13.60
2017-06-22T23:10:11.810Z,14.30
2017-06-22T23:12:39.296Z,15.07
2017-06-22T23:15:07.055Z,11.63
2017-06-22T23:17:34.549Z,11.57
2017-06-22T23:20:02.048Z,15.03
2017-06-22T23:22:30.305Z,12.43
2017-06-22T23:24:57.812Z,14.33
2017-06-22T23:27:25.598Z,15.33
2017-06-22T23:29:53.100Z,13.37
2017-06-22T23:32:21.378Z,13.77
2017-06-22T23:34:49.664Z,11.40
2017-06-22T23:37:17.186Z,14.70
2017-06-22T23:39:44.962Z,13.40
2017-06-22T23:42:12.460Z,12.90
2017-06-22T23:44:39.964Z,15.77
2017-06-22T23:47:07.492Z,13.73
2017-06-22T23:49:34.992Z,16.17
2017-06-22T23:52:02.505Z,16.27
2017-06-22T23:54:30.004Z,16.73
2017-06-22T23:56:57.778Z,14.60
2017-06-22T23:59:25.276Z,14.07
